Time;durP1;ratioP1;P1;durP2;ratioP2;P2;SDS_P1;SDS_P2;PMS_P1;PMS_P2;Temp;Humidity;BMP_temperature;BMP_pressure;BME280_temperature;BME280_humidity;BME280_pressure;Samples;Min_cycle;Max_cycle;Signal;HPM_P1;HPM_P2
2023/03/09 00:00:22;;;;;;;22.60;13.60;;;;;;;1.10;72.89;99500.28;7391129;19;20450;-57
2023/03/09 00:02:48;;;;;;;23.98;13.60;;;;;;;1.15;72.57;99493.78;7389024;19;20103;-56
2023/03/09 00:05:16;;;;;;;21.17;12.85;;;;;;;1.09;73.49;99498.56;7387836;19;20013;-55
2023/03/09 00:07:42;;;;;;;20.63;12.75;;;;;;;1.12;72.86;99499.22;7390736;19;20458;-57
2023/03/09 00:10:10;;;;;;;20.23;12.88;;;;;;;1.11;73.16;99494.94;7391613;19;19995;-56
2023/03/09 00:12:36;;;;;;;21.08;13.13;;;;;;;1.10;73.17;99485.41;7391267;19;20335;-56
2023/03/09 00:15:02;;;;;;;18.90;12.25;;;;;;;1.20;73.03;99493.50;7388283;19;19998;-57
2023/03/09 00:17:27;;;;;;;20.60;12.70;;;;;;;1.29;72.70;99486.88;7389147;19;19998;-57
2023/03/09 00:20:00;;;;;;;20.55;12.70;;;;;;;1.24;72.81;99494.97;7390392;19;20029;-57
2023/03/09 00:22:26;;;;;;;21.13;13.40;;;;;;;1.17;73.18;99496.34;7389451;19;19991;-57
2023/03/09 00:24:56;;;;;;;20.10;12.18;;;;;;;1.21;73.33;99495.19;7388664;19;19999;-58
2023/03/09 00:27:21;;;;;;;20.80;12.82;;;;;;;1.14;73.47;99488.69;7388916;19;20010;-57
2023/03/09 00:29:47;;;;;;;22.70;13.27;;;;;;;1.23;73.63;99479.41;7389645;19;20313;-57
2023/03/09 00:32:12;;;;;;;21.58;13.63;;;;;;;1.19;73.70;99486.59;7389750;19;19995;-57
2023/03/09 00:34:38;;;;;;;21.90;13.68;;;;;;;1.17;73.71;99485.88;7387915;19;20066;-57
2023/03/09 00:37:03;;;;;;;24.13;14.40;;;;;;;1.02;74.03;99479.84;7388827;19;20011;-57
2023/03/09 00:39:29;;;;;;;21.10;13.05;;;;;;;0.88;74.95;99479.84;7390639;19;20295;-57
2023/03/09 00:41:54;;;;;;;21.35;13.13;;;;;;;1.05;74.71;99495.34;7386772;19;20010;-57
2023/03/09 00:44:20;;;;;;;22.73;13.77;;;;;;;1.06;74.70;99494.38;7388371;19;20479;-56
2023/03/09 00:46:45;;;;;;;21.05;12.95;;;;;;;1.22;74.16;99490.81;7388880;19;19987;-56
2023/03/09 00:49:13;;;;;;;21.98;12.70;;;;;;;1.22;73.97;99494.25;7387710;19;20029;-55
2023/03/09 00:51:38;;;;;;;22.17;13.13;;;;;;;1.17;74.34;99488.50;7390640;19;19991;-56
2023/03/09 00:54:05;;;;;;;20.73;13.07;;;;;;;1.10;74.35;99490.66;7388856;19;20009;-56
2023/03/09 00:56:30;;;;;;;20.55;12.88;;;;;;;1.01;74.71;99482.53;7387549;19;19999;-56
2023/03/09 00:58:57;;;;;;;19.90;12.43;;;;;;;1.04;74.81;99485.78;7389073;19;20011;-56
2023/03/09 01:01:23;;;;;;;21.25;12.95;;;;;;;1.05;74.73;99481.41;7389886;19;20002;-57
2023/03/09 01:03:49;;;;;;;20.40;12.77;;;;;;;1.16;74.40;99487.63;7389562;19;20022;-57
2023/03/09 01:06:15;;;;;;;20.55;12.80;;;;;;;1.01;74.95;99485.13;7389753;19;20460;-55
2023/03/09 01:08:41;;;;;;;23.08;13.48;;;;;;;0.97;74.97;99492.34;7387415;19;19994;-55
2023/03/09 01:11:09;;;;;;;19.27;12.40;;;;;;;0.95;74.87;99488.16;7389439;19;19999;-55
2023/03/09 01:13:34;;;;;;;19.60;12.13;;;;;;;0.88;75.06;99485.91;7387772;19;20158;-55
2023/03/09 01:16:00;;;;;;;18.40;11.93;;;;;;;0.90;74.98;99486.69;7394555;19;20002;-55
2023/03/09 01:18:25;;;;;;;20.15;11.98;;;;;;;0.97;74.86;99479.25;7397570;19;19999;-55
2023/03/09 01:20:51;;;;;;;18.80;11.60;;;;;;;0.97;74.69;99481.88;7396282;19;20019;-55
2023/03/09 01:23:16;;;;;;;18.75;11.18;;;;;;;1.05;74.74;99479.66;7396674;19;19998;-55
2023/03/09 01:25:42;;;;;;;18.25;10.95;;;;;;;1.08;74.40;99481.22;7391165;19;20301;-55
2023/03/09 01:28:07;;;;;;;19.50;11.10;;;;;;;1.13;74.15;99476.53;7396331;19;19991;-55
2023/03/09 01:30:33;;;;;;;16.90;10.25;;;;;;;1.07;74.34;99466.47;7394082;19;20001;-55
2023/03/09 01:32:58;;;;;;;18.35;10.55;;;;;;;1.10;74.12;99472.34;7393583;19;20392;-56
2023/03/09 01:35:24;;;;;;;16.30;10.10;;;;;;;1.06;74.12;99465.63;7393167;19;20002;-54
2023/03/09 01:37:49;;;;;;;16.92;10.60;;;;;;;1.11;73.88;99467.94;7395881;19;20003;-56
2023/03/09 01:40:25;;;;;;;17.10;9.85;;;;;;;1.08;73.95;99471.56;7395420;19;19995;-55
2023/03/09 01:42:59;;;;;;;15.80;9.55;;;;;;;1.14;73.96;99468.59;7394224;19;19994;-56
2023/03/09 01:45:24;;;;;;;;;;;;;;;1.08;74.17;99468.13;7392708;19;20595;-56
2023/03/09 01:47:49;;;;;;;17.05;9.40;;;;;;;1.02;73.79;99474.59;7396927;19;19922;-55
2023/03/09 01:50:18;;;;;;;16.80;9.73;;;;;;;1.05;73.95;99479.66;7393994;19;20003;-55
2023/03/09 01:52:47;;;;;;;17.25;9.63;;;;;;;1.14;73.69;99472.97;7395337;19;19998;-56
2023/03/09 01:55:15;;;;;;;16.40;8.98;;;;;;;1.01;74.17;99478.13;7393243;19;20017;-56
2023/03/09 01:57:55;;;;;;;16.55;10.07;;;;;;;1.05;73.91;99468.31;7395573;19;20425;-57
2023/03/09 02:00:24;;;;;;;17.52;9.50;;;;;;;1.01;73.99;99467.66;7388762;19;20078;-50
2023/03/09 02:02:59;;;;;;;16.92;9.63;;;;;;;0.87;74.36;99463.34;7395994;19;20015;-49
2023/03/09 02:05:43;;;;;;;15.95;9.13;;;;;;;0.87;75.12;99465.13;7395405;19;19998;-52
2023/03/09 02:08:10;;;;;;;14.25;9.15;;;;;;;0.80;74.92;99466.44;7394287;19;19999;-53
2023/03/09 02:10:57;;;;;;;15.98;9.52;;;;;;;0.85;74.76;99465.19;7395540;19;19994;-51
2023/03/09 02:13:33;;;;;;;16.50;9.40;;;;;;;0.95;74.37;99469.84;7395456;19;20002;-48
2023/03/09 02:15:58;;;;;;;17.48;9.23;;;;;;;0.86;74.53;99471.25;7394329;19;20005;-52
2023/03/09 02:18:24;;;;;;;17.42;9.85;;;;;;;0.95;74.52;99475.09;7396725;19;20002;-51
2023/03/09 02:21:07;;;;;;;15.00;8.73;;;;;;;0.99;74.15;99472.19;7396453;19;20396;-50
2023/03/09 02:24:20;;;;;;;15.20;8.85;;;;;;;0.95;74.07;99469.84;7396661;19;19994;-51
2023/03/09 02:26:53;;;;;;;17.90;9.80;;;;;;;0.98;74.04;99477.47;7391042;19;19994;-52
2023/03/09 02:29:19;;;;;;;17.65;9.38;;;;;;;1.04;73.69;99472.72;7393950;19;19999;-53
2023/03/09 02:31:44;;;;;;;14.57;8.02;;;;;;;0.93;73.93;99475.16;7396393;19;20009;-51
2023/03/09 02:34:11;;;;;;;16.30;9.10;;;;;;;1.01;73.71;99469.44;7396077;19;20086;-50
2023/03/09 02:36:36;;;;;;;16.88;9.70;;;;;;;1.03;73.79;99475.44;7394592;19;20014;-48
2023/03/09 02:39:30;;;;;;;17.13;9.45;;;;;;;1.05;73.78;99469.19;7394061;19;20007;-48
2023/03/09 02:41:57;;;;;;;16.55;9.35;;;;;;;1.04;74.23;99471.88;7395882;19;20522;-47
2023/03/09 02:44:24;;;;;;;16.17;8.95;;;;;;;0.92;74.44;99474.31;7395413;19;20006;-48
2023/03/09 02:46:50;;;;;;;18.38;10.30;;;;;;;0.97;74.67;99475.81;7396641;19;19999;-48
2023/03/09 02:49:17;;;;;;;16.83;9.35;;;;;;;0.86;75.02;99477.34;7394862;19;20002;-49
2023/03/09 02:51:42;;;;;;;15.45;9.32;;;;;;;0.92;74.85;99484.78;7395966;19;20347;-51
2023/03/09 02:54:08;;;;;;;16.85;9.80;;;;;;;0.93;74.89;99485.63;7395635;19;19998;-51
2023/03/09 02:56:33;;;;;;;15.63;9.52;;;;;;;0.87;75.00;99491.25;7393590;19;19987;-47
2023/03/09 02:59:01;;;;;;;17.55;9.57;;;;;;;0.76;75.55;99485.84;7394093;19;20379;-47
2023/03/09 03:01:27;;;;;;;15.35;9.30;;;;;;;0.79;75.59;99488.28;7396299;19;20022;-48
2023/03/09 03:03:52;;;;;;;15.95;9.90;;;;;;;0.68;75.82;99484.53;7395082;19;20001;-49
2023/03/09 03:06:18;;;;;;;18.88;10.02;;;;;;;0.69;76.07;99485.38;7394925;19;19995;-48
2023/03/09 03:08:43;;;;;;;16.35;9.55;;;;;;;0.77;76.02;99488.34;7392346;19;19995;-48
2023/03/09 03:11:09;;;;;;;16.85;9.93;;;;;;;0.77;75.52;99490.97;7393829;19;19995;-48
2023/03/09 03:13:34;;;;;;;17.65;10.18;;;;;;;0.80;75.89;99492.56;7394787;19;20020;-46
2023/03/09 03:16:01;;;;;;;14.98;9.18;;;;;;;0.65;76.32;99496.97;7392943;19;20095;-48
2023/03/09 03:18:27;;;;;;;16.25;9.57;;;;;;;0.72;76.04;99500.03;7394340;19;20010;-47
2023/03/09 03:20:52;;;;;;;19.48;11.32;;;;;;;0.80;75.79;99511.69;7395249;19;19995;-49
2023/03/09 03:23:17;;;;;;;17.75;9.70;;;;;;;0.80;76.12;99516.09;7392830;19;20502;-48
2023/03/09 03:25:43;;;;;;;17.15;10.23;;;;;;;0.66;76.54;99516.94;7393876;19;20033;-46
2023/03/09 03:28:08;;;;;;;15.75;9.90;;;;;;;0.66;76.65;99517.75;7395024;19;20002;-47
2023/03/09 03:30:34;;;;;;;17.08;10.60;;;;;;;0.69;76.38;99519.34;7393334;19;20021;-46
2023/03/09 03:32:59;;;;;;;18.33;9.93;;;;;;;0.74;76.28;99522.53;7397260;19;20006;-47
2023/03/09 03:35:25;;;;;;;16.88;10.63;;;;;;;0.61;76.71;99529.44;7389674;19;20074;-47
2023/03/09 03:37:50;;;;;;;17.95;10.25;;;;;;;0.67;76.44;99536.88;7390134;19;20005;-49
2023/03/09 03:40:16;;;;;;;17.15;10.43;;;;;;;0.60;76.88;99539.06;7390796;19;20075;-49
2023/03/09 03:42:41;;;;;;;18.33;10.95;;;;;;;0.69;76.61;99546.31;7392400;19;20002;-48
2023/03/09 03:45:07;;;;;;;17.58;10.45;;;;;;;0.71;76.30;99550.63;7391904;19;20006;-50
2023/03/09 03:47:33;;;;;;;19.58;11.77;;;;;;;0.68;76.50;99546.44;7392116;19;20110;-48
2023/03/09 03:49:58;;;;;;;19.63;11.02;;;;;;;0.68;76.45;99552.50;7389954;19;20481;-47
2023/03/09 03:52:24;;;;;;;19.35;11.30;;;;;;;0.70;76.37;99557.63;7392648;19;20442;-50
2023/03/09 03:54:49;;;;;;;18.23;10.88;;;;;;;0.66;76.26;99562.19;7391410;19;20006;-47
2023/03/09 03:57:15;;;;;;;17.83;10.73;;;;;;;0.65;76.38;99547.44;7392476;19;20006;-47
2023/03/09 03:59:40;;;;;;;17.05;10.60;;;;;;;0.77;76.39;99547.63;7389121;19;20010;-47
2023/03/09 04:02:06;;;;;;;18.05;10.25;;;;;;;0.89;75.84;99554.72;7392058;19;20059;-46
2023/03/09 04:04:31;;;;;;;18.90;10.90;;;;;;;0.88;75.80;99560.91;7391244;19;19994;-48
2023/03/09 04:06:57;;;;;;;17.63;10.70;;;;;;;0.70;76.38;99568.06;7390271;19;20006;-49
2023/03/09 04:09:23;;;;;;;15.52;9.98;;;;;;;0.78;76.18;99576.28;7390634;19;19995;-52
2023/03/09 04:11:49;;;;;;;18.35;10.68;;;;;;;0.82;75.86;99577.78;7390028;19;20112;-48
2023/03/09 04:14:14;;;;;;;22.00;10.73;;;;;;;0.86;75.75;99583.66;7391521;19;20011;-47
2023/03/09 04:16:40;;;;;;;18.55;10.55;;;;;;;0.84;75.94;99586.38;7389839;19;20473;-49
2023/03/09 04:19:05;;;;;;;18.70;10.57;;;;;;;0.63;77.11;99585.91;7391965;19;19998;-52
2023/03/09 04:21:31;;;;;;;17.35;10.45;;;;;;;0.63;76.76;99583.31;7391470;19;20006;-52
2023/03/09 04:23:56;;;;;;;18.33;10.52;;;;;;;0.61;77.19;99582.53;7390444;19;20013;-52
2023/03/09 04:26:22;;;;;;;17.35;10.23;;;;;;;0.73;76.92;99586.19;7391075;19;19995;-51
2023/03/09 04:28:47;;;;;;;18.33;11.20;;;;;;;0.68;76.81;99589.09;7388473;19;20001;-48
2023/03/09 04:31:13;;;;;;;17.77;10.70;;;;;;;0.71;76.84;99600.28;7391160;19;19991;-48
2023/03/09 04:33:42;;;;;;;18.70;10.65;;;;;;;0.60;77.31;99595.72;7391973;19;20447;-48
2023/03/09 04:36:10;;;;;;;18.83;10.90;;;;;;;0.55;77.23;99592.50;7389398;19;20009;-51
2023/03/09 04:38:36;;;;;;;19.58;11.07;;;;;;;0.61;77.16;99590.38;7389939;19;20015;-50
2023/03/09 04:41:02;;;;;;;22.20;11.65;;;;;;;0.56;77.43;99602.06;7390559;19;19991;-49
2023/03/09 04:43:28;;;;;;;18.55;10.63;;;;;;;0.55;77.68;99597.75;7389207;19;20017;-50
2023/03/09 04:45:54;;;;;;;20.35;11.50;;;;;;;0.57;77.76;99593.28;7388083;19;20469;-52
2023/03/09 04:48:19;;;;;;;16.90;10.57;;;;;;;0.58;77.83;99594.94;7391887;19;19998;-50
2023/03/09 04:50:45;;;;;;;21.25;11.30;;;;;;;0.50;77.77;99610.25;7393893;19;20026;-51
2023/03/09 04:53:11;;;;;;;18.10;11.00;;;;;;;0.54;77.80;99598.69;7396752;19;20001;-49
2023/03/09 04:55:37;;;;;;;19.15;10.60;;;;;;;0.49;78.00;99608.56;7396658;19;20538;-50
2023/03/09 04:58:03;;;;;;;20.60;11.27;;;;;;;0.46;78.47;99612.19;7398311;19;20002;-49
2023/03/09 05:00:32;;;;;;;20.02;11.05;;;;;;;0.40;78.33;99605.56;7392909;19;20019;-50
2023/03/09 05:02:58;;;;;;;20.08;10.73;;;;;;;0.53;78.15;99610.91;7398874;19;20094;-49
2023/03/09 05:05:24;;;;;;;19.70;10.45;;;;;;;0.61;77.58;99618.28;7397960;19;20023;-51
2023/03/09 05:07:49;;;;;;;18.23;10.75;;;;;;;0.57;77.83;99615.03;7396233;19;20013;-50
2023/03/09 05:10:15;;;;;;;17.15;10.63;;;;;;;0.53;78.21;99617.91;7395635;19;19999;-50
2023/03/09 05:12:41;;;;;;;19.17;10.60;;;;;;;0.55;78.04;99622.09;7397984;19;20062;-49
2023/03/09 05:15:08;;;;;;;22.38;11.93;;;;;;;0.44;78.20;99630.59;7394470;19;20015;-47
2023/03/09 05:17:34;;;;;;;18.48;10.85;;;;;;;0.49;78.18;99630.31;7397908;19;19998;-50
2023/03/09 05:19:59;;;;;;;18.10;10.57;;;;;;;0.38;78.42;99633.53;7395277;19;20337;-49
2023/03/09 05:22:25;;;;;;;19.63;10.95;;;;;;;0.46;78.36;99632.25;7395597;19;20025;-47
2023/03/09 05:24:51;;;;;;;19.98;10.55;;;;;;;0.54;78.16;99630.03;7396145;19;20025;-50
2023/03/09 05:27:16;;;;;;;16.52;9.90;;;;;;;0.56;77.49;99639.47;7395104;19;19998;-52
2023/03/09 05:29:42;;;;;;;17.98;10.13;;;;;;;0.48;78.08;99641.69;7393830;19;19994;-49
2023/03/09 05:32:07;;;;;;;18.75;10.30;;;;;;;0.51;78.18;99645.88;7396549;19;20005;-49
2023/03/09 05:34:34;;;;;;;18.75;10.85;;;;;;;0.58;77.70;99650.66;7396724;19;20102;-49
2023/03/09 05:37:00;;;;;;;18.23;10.23;;;;;;;0.56;77.88;99649.94;7393023;19;20058;-48
2023/03/09 05:39:26;;;;;;;20.27;10.88;;;;;;;0.48;77.88;99651.28;7394836;19;20483;-48
2023/03/09 05:41:52;;;;;;;19.58;10.73;;;;;;;0.45;78.24;99662.78;7397188;19;20006;-48
2023/03/09 05:44:17;;;;;;;18.48;10.50;;;;;;;0.55;78.19;99660.44;7395246;19;20003;-48
2023/03/09 05:46:43;;;;;;;17.13;10.10;;;;;;;0.49;78.09;99659.06;7394368;19;20347;-49
2023/03/09 05:49:09;;;;;;;17.88;10.52;;;;;;;0.45;78.33;99657.53;7394403;19;20010;-50
2023/03/09 05:51:35;;;;;;;18.35;11.13;;;;;;;0.45;78.24;99660.16;7397244;19;20003;-48
2023/03/09 05:54:00;;;;;;;20.08;10.32;;;;;;;0.49;78.10;99663.44;7396519;19;20073;-48
2023/03/09 05:56:26;;;;;;;17.00;9.85;;;;;;;0.48;78.31;99666.97;7393160;19;20046;-48
2023/03/09 05:58:51;;;;;;;16.92;10.45;;;;;;;0.44;78.25;99666.28;7395006;19;20564;-47
2023/03/09 06:01:25;;;;;;;16.92;10.25;;;;;;;0.46;78.31;99669.66;7391580;19;20035;-53
2023/03/09 06:03:51;;;;;;;16.40;9.80;;;;;;;0.49;78.35;99668.66;7394265;19;20005;-47
2023/03/09 06:06:17;;;;;;;16.63;10.10;;;;;;;0.47;78.40;99665.28;7395250;19;20054;-48
2023/03/09 06:08:43;;;;;;;17.27;10.52;;;;;;;0.41;78.53;99667.34;7394094;19;20054;-50
2023/03/09 06:11:09;;;;;;;19.05;10.05;;;;;;;0.53;78.34;99671.00;7396465;19;20434;-49
2023/03/09 06:13:35;;;;;;;18.35;10.38;;;;;;;0.56;78.01;99681.28;7396744;19;20003;-50
2023/03/09 06:16:05;;;;;;;17.60;10.13;;;;;;;0.57;78.02;99697.81;7391905;19;19999;-47
2023/03/09 06:18:31;;;;;;;18.48;10.35;;;;;;;0.52;77.95;99695.47;7395318;19;19998;-52
2023/03/09 06:21:03;;;;;;;16.25;9.02;;;;;;;0.51;78.01;99691.13;7393978;19;19999;-47
2023/03/09 06:23:30;;;;;;;16.55;9.90;;;;;;;0.57;77.55;99696.03;7393660;19;20062;-47
2023/03/09 06:25:56;;;;;;;19.45;10.35;;;;;;;0.58;77.82;99702.09;7394388;19;20083;-46
2023/03/09 06:28:22;;;;;;;18.55;10.35;;;;;;;0.60;77.64;99698.47;7394907;19;20515;-49
2023/03/09 06:30:48;;;;;;;16.75;9.70;;;;;;;0.51;77.94;99698.97;7395600;19;20012;-48
2023/03/09 06:33:13;;;;;;;17.33;10.50;;;;;;;0.61;77.91;99692.31;7395775;19;20017;-51
2023/03/09 06:35:40;;;;;;;17.00;9.80;;;;;;;0.56;77.89;99703.97;7393029;19;20415;-46
2023/03/09 06:38:05;;;;;;;17.50;9.93;;;;;;;0.67;77.56;99719.84;7393337;19;20372;-51
2023/03/09 06:40:31;;;;;;;18.35;9.82;;;;;;;0.64;77.93;99722.66;7393680;19;20001;-51
2023/03/09 06:42:56;;;;;;;17.52;9.45;;;;;;;0.71;77.40;99737.06;7394407;19;19994;-48
2023/03/09 06:45:22;;;;;;;17.98;9.45;;;;;;;0.62;77.68;99743.63;7394254;19;19999;-49
2023/03/09 06:47:48;;;;;;;16.88;9.32;;;;;;;0.70;77.54;99751.03;7395238;19;20082;-50
2023/03/09 06:50:14;;;;;;;17.33;9.10;;;;;;;0.62;77.84;99753.25;7393249;19;20001;-48
2023/03/09 06:52:40;;;;;;;15.80;8.65;;;;;;;0.69;77.55;99744.97;7394830;19;19998;-49
2023/03/09 06:55:05;;;;;;;15.93;9.55;;;;;;;0.59;77.63;99756.88;7393106;19;20843;-50
2023/03/09 06:57:31;;;;;;;15.88;9.45;;;;;;;0.67;77.63;99751.19;7392515;19;19990;-51
2023/03/09 06:59:59;;;;;;;17.02;9.55;;;;;;;0.83;77.20;99764.25;7392380;19;20159;-49
2023/03/09 07:02:25;;;;;;;16.83;8.70;;;;;;;0.77;77.27;99769.81;7394455;19;20125;-48
2023/03/09 07:04:51;;;;;;;16.08;9.07;;;;;;;0.83;76.76;99766.88;7393992;19;20518;-47
2023/03/09 07:07:23;;;;;;;15.82;8.75;;;;;;;0.91;76.94;99773.34;7392545;19;20006;-48
2023/03/09 07:09:48;;;;;;;16.00;8.73;;;;;;;1.04;76.44;99777.84;7392097;19;20026;-50
2023/03/09 07:12:14;;;;;;;17.10;8.93;;;;;;;0.94;76.39;99780.16;7392342;19;19998;-48
2023/03/09 07:14:40;;;;;;;14.57;8.88;;;;;;;0.87;76.59;99794.53;7391710;19;20446;-48
2023/03/09 07:17:05;;;;;;;17.27;9.48;;;;;;;0.90;76.45;99799.56;7391800;19;20010;-48
2023/03/09 07:19:31;;;;;;;18.48;9.38;;;;;;;0.92;76.49;99798.53;7391918;19;20501;-50
2023/03/09 07:21:56;;;;;;;17.13;9.20;;;;;;;0.92;76.31;99788.09;7392960;19;20002;-49
2023/03/09 07:24:22;;;;;;;14.55;8.27;;;;;;;0.98;76.15;99786.91;7392859;19;20462;-48
2023/03/09 07:26:48;;;;;;;16.00;8.95;;;;;;;1.04;76.21;99793.53;7392131;19;20458;-49
2023/03/09 07:29:14;;;;;;;16.63;9.02;;;;;;;1.16;75.78;99800.66;7392972;19;19999;-51
2023/03/09 07:31:40;;;;;;;17.52;9.18;;;;;;;1.15;75.55;99793.75;7390847;19;20048;-49
2023/03/09 07:34:06;;;;;;;17.15;8.88;;;;;;;1.08;75.71;99798.50;7393267;19;19999;-47
2023/03/09 07:36:31;;;;;;;15.15;8.50;;;;;;;1.11;75.83;99802.72;7390812;19;20384;-47
2023/03/09 07:38:57;;;;;;;17.98;9.68;;;;;;;1.11;75.44;99795.69;7392163;19;20070;-48
2023/03/09 07:41:22;;;;;;;15.65;8.57;;;;;;;1.17;75.82;99800.59;7392704;19;20011;-48
2023/03/09 07:43:48;;;;;;;16.80;8.65;;;;;;;1.15;75.79;99802.44;7391992;19;19994;-48
2023/03/09 07:46:15;;;;;;;17.20;8.55;;;;;;;1.07;75.93;99802.03;7391249;19;20002;-47
2023/03/09 07:48:42;;;;;;;15.00;8.65;;;;;;;1.17;75.96;99807.59;7390510;19;20015;-48
2023/03/09 07:51:09;;;;;;;16.60;9.02;;;;;;;1.23;75.97;99806.38;7393211;19;20025;-47
2023/03/09 07:53:43;;;;;;;16.80;8.60;;;;;;;1.36;75.38;99804.75;7390404;19;19999;-50
2023/03/09 07:56:08;;;;;;;;;;;;;;;1.30;75.81;99807.72;7391964;19;20020;-51
2023/03/09 07:58:37;;;;;;;16.33;8.43;;;;;;;1.22;75.69;99812.56;7391495;19;19915;-51
2023/03/09 08:01:03;;;;;;;15.23;7.90;;;;;;;1.31;75.66;99822.47;7389975;19;20025;-48
2023/03/09 08:03:29;;;;;;;14.77;8.20;;;;;;;1.29;75.73;99822.56;7390753;19;19999;-50
2023/03/09 08:05:55;;;;;;;16.88;8.27;;;;;;;1.24;75.53;99824.59;7390342;19;20346;-48
2023/03/09 08:08:22;;;;;;;14.63;8.48;;;;;;;1.23;75.79;99835.16;7392473;19;20009;-53
2023/03/09 08:10:52;;;;;;;13.80;7.95;;;;;;;1.39;75.60;99841.16;7389971;19;20031;-49
2023/03/09 08:13:18;;;;;;;15.35;8.85;;;;;;;1.52;74.92;99844.75;7392163;19;20443;-48
2023/03/09 08:15:43;;;;;;;13.80;7.78;;;;;;;1.63;74.43;99849.38;7390102;19;20034;-51
2023/03/09 08:18:09;;;;;;;15.23;8.85;;;;;;;1.48;75.18;99839.81;7392505;19;20010;-48
2023/03/09 08:20:36;;;;;;;14.05;8.30;;;;;;;1.65;74.68;99839.63;7390150;19;20017;-51
2023/03/09 08:23:01;;;;;;;15.23;7.93;;;;;;;1.85;73.86;99846.28;7388755;19;20002;-51
2023/03/09 08:25:27;;;;;;;15.43;8.38;;;;;;;1.82;73.92;99841.25;7389781;19;20039;-50
2023/03/09 08:27:53;;;;;;;14.07;7.88;;;;;;;1.87;73.79;99842.66;7388834;19;20009;-51
2023/03/09 08:30:20;;;;;;;15.48;8.38;;;;;;;1.63;74.24;99833.66;7387767;19;20336;-51
2023/03/09 08:32:47;;;;;;;15.30;8.65;;;;;;;1.71;73.95;99841.06;7391947;19;20030;-47
2023/03/09 08:35:18;;;;;;;13.73;7.68;;;;;;;1.72;74.24;99842.72;7389307;19;20022;-49
2023/03/09 08:37:45;;;;;;;13.52;7.35;;;;;;;1.75;74.08;99845.16;7388867;19;20062;-48
2023/03/09 08:40:11;;;;;;;12.43;6.90;;;;;;;1.57;74.08;99842.72;7387573;19;20501;-49
2023/03/09 08:42:37;;;;;;;13.73;7.30;;;;;;;1.69;73.98;99846.38;7390909;19;20331;-48
2023/03/09 08:45:04;;;;;;;14.40;7.75;;;;;;;1.76;73.66;99862.56;7389912;19;20002;-50
2023/03/09 08:47:30;;;;;;;12.07;7.15;;;;;;;1.91;72.76;99859.00;7391150;19;20055;-48
2023/03/09 08:49:56;;;;;;;13.15;7.78;;;;;;;2.00;72.55;99865.47;7388795;19;19999;-49
2023/03/09 08:52:21;;;;;;;14.55;8.60;;;;;;;2.14;72.56;99861.06;7388624;19;20013;-47
2023/03/09 08:54:47;;;;;;;12.82;6.50;;;;;;;2.25;72.39;99870.91;7389875;19;20359;-46
2023/03/09 08:57:12;;;;;;;11.02;5.85;;;;;;;2.25;71.36;99878.75;7388887;19;20007;-48
2023/03/09 08:59:39;;;;;;;11.63;6.50;;;;;;;2.18;71.39;99877.44;7387234;19;20571;-48
2023/03/09 09:02:04;;;;;;;11.95;5.85;;;;;;;2.19;71.52;99881.75;7390145;19;20010;-46
2023/03/09 09:04:30;;;;;;;9.80;5.75;;;;;;;2.21;70.86;99873.81;7390053;19;19995;-48
2023/03/09 09:06:56;;;;;;;11.35;5.70;;;;;;;2.19;71.28;99886.13;7389934;19;20007;-47
2023/03/09 09:09:21;;;;;;;12.93;6.03;;;;;;;2.13;71.02;99890.00;7389788;19;20300;-48
2023/03/09 09:11:47;;;;;;;12.13;6.43;;;;;;;2.25;71.37;99902.34;7389861;19;20010;-47
2023/03/09 09:14:13;;;;;;;12.18;5.85;;;;;;;2.25;71.08;99897.09;7390883;19;20020;-47
2023/03/09 09:16:38;;;;;;;11.30;6.00;;;;;;;2.38;70.92;99895.38;7387963;19;19995;-49
2023/03/09 09:19:04;;;;;;;11.10;5.60;;;;;;;2.39;70.72;99896.25;7389311;19;20082;-48
2023/03/09 09:21:30;;;;;;;9.43;4.82;;;;;;;2.40;69.45;99901.38;7390372;19;20325;-52
2023/03/09 09:23:56;;;;;;;9.27;4.90;;;;;;;2.43;69.32;99907.38;7389460;19;20355;-49
2023/03/09 09:26:22;;;;;;;9.35;4.78;;;;;;;2.44;69.26;99909.91;7389395;19;19998;-49
2023/03/09 09:28:48;;;;;;;10.07;4.82;;;;;;;2.43;68.67;99917.84;7386961;19;20488;-47
2023/03/09 09:31:19;;;;;;;10.35;4.57;;;;;;;2.42;68.14;99924.03;7389580;19;20066;-48
2023/03/09 09:33:45;;;;;;;9.32;4.72;;;;;;;2.60;68.04;99923.75;7388749;19;20122;-48
2023/03/09 09:36:14;;;;;;;11.15;4.80;;;;;;;2.66;68.01;99930.41;7392015;19;19995;-49
2023/03/09 09:38:41;;;;;;;11.38;5.18;;;;;;;2.54;68.45;99939.00;7394742;19;20015;-47
2023/03/09 09:41:20;;;;;;;9.30;5.00;;;;;;;2.51;68.35;99941.84;7396095;19;20358;-48
2023/03/09 09:43:52;;;;;;;9.57;4.78;;;;;;;2.62;67.80;99942.84;7396618;19;20404;-47
2023/03/09 09:46:20;;;;;;;9.18;4.90;;;;;;;2.50;67.62;99941.00;7394557;19;20038;-47
2023/03/09 09:48:48;;;;;;;10.25;4.93;;;;;;;2.56;68.15;99945.00;7395346;19;20449;-47
2023/03/09 09:51:42;;;;;;;10.07;4.97;;;;;;;2.59;68.41;99955.31;7396322;19;20062;-47
2023/03/09 09:54:16;;;;;;;9.77;4.90;;;;;;;2.67;68.43;99954.84;7395528;19;20499;-49
2023/03/09 09:56:50;;;;;;;10.88;5.30;;;;;;;2.66;68.10;99956.63;7393393;19;20003;-49
2023/03/09 09:59:40;;;;;;;9.70;5.03;;;;;;;2.70;67.54;99946.78;7395528;19;20085;-53
2023/03/09 10:02:09;;;;;;;9.30;5.10;;;;;;;2.57;68.22;99944.06;7395657;19;20463;-51
2023/03/09 10:04:51;;;;;;;8.95;4.70;;;;;;;2.68;67.75;99944.25;7396655;19;20062;-53
2023/03/09 10:07:20;;;;;;;10.35;5.18;;;;;;;2.71;67.74;99951.91;7396185;19;20066;-53
2023/03/09 10:09:52;;;;;;;10.50;5.25;;;;;;;2.59;67.62;99947.44;7393969;19;20005;-52
2023/03/09 10:12:17;;;;;;;8.43;4.60;;;;;;;2.70;67.46;99952.03;7395104;19;20003;-49
2023/03/09 10:14:55;;;;;;;9.95;4.97;;;;;;;2.67;66.58;99963.53;7395213;19;20494;-51
2023/03/09 10:17:33;;;;;;;11.68;5.18;;;;;;;2.69;66.81;99966.91;7393007;19;20217;-51
2023/03/09 10:20:10;;;;;;;10.23;5.15;;;;;;;2.63;67.09;99955.03;7394888;19;20005;-49
2023/03/09 10:22:38;;;;;;;9.80;5.13;;;;;;;2.68;66.69;99962.59;7393652;19;20393;-51
2023/03/09 10:25:16;;;;;;;9.48;5.18;;;;;;;2.80;66.63;99963.59;7394306;19;20336;-52
2023/03/09 10:28:03;;;;;;;9.80;5.10;;;;;;;2.81;66.77;99965.31;7393457;19;20324;-52
2023/03/09 10:30:45;;;;;;;10.38;5.70;;;;;;;2.72;67.10;99973.75;7392494;19;20125;-49
2023/03/09 10:33:17;;;;;;;9.60;5.35;;;;;;;2.73;66.97;99983.28;7394384;19;20019;-53
2023/03/09 10:36:01;;;;;;;9.98;5.07;;;;;;;2.73;67.00;99986.78;7393387;19;20360;-52
2023/03/09 10:38:26;;;;;;;11.15;5.38;;;;;;;2.73;66.76;99986.78;7394746;19;20336;-51
2023/03/09 10:40:55;;;;;;;10.23;5.68;;;;;;;2.67;67.05;99988.94;7394839;19;20087;-54
2023/03/09 10:43:30;;;;;;;10.65;5.35;;;;;;;2.69;66.87;99985.25;7393612;19;20005;-49
2023/03/09 10:46:11;;;;;;;8.35;4.57;;;;;;;2.73;66.31;99980.66;7393623;19;20336;-50
2023/03/09 10:48:37;;;;;;;8.65;4.72;;;;;;;2.58;66.49;99977.22;7394096;19;20399;-51
2023/03/09 10:51:05;;;;;;;10.55;5.13;;;;;;;2.66;66.81;99979.38;7393061;19;19994;-54
2023/03/09 10:53:44;;;;;;;8.48;4.45;;;;;;;2.76;66.36;99978.69;7394756;19;20003;-51
2023/03/09 10:56:28;;;;;;;9.88;4.95;;;;;;;2.94;65.84;99976.72;7392370;19;20343;-49
2023/03/09 10:59:06;;;;;;;10.23;4.70;;;;;;;3.07;66.40;99979.38;7394735;19;20022;-50
2023/03/09 11:01:35;;;;;;;10.00;4.88;;;;;;;3.12;65.79;99972.09;7392226;19;20010;-50
2023/03/09 11:04:01;;;;;;;10.80;5.22;;;;;;;3.12;65.66;99975.56;7393840;19;19999;-52
2023/03/09 11:06:34;;;;;;;10.38;5.40;;;;;;;3.18;65.57;99986.59;7394243;19;20441;-51
2023/03/09 11:09:11;;;;;;;9.05;4.68;;;;;;;3.30;65.05;99981.41;7393951;19;20013;-53
2023/03/09 11:11:39;;;;;;;9.68;4.97;;;;;;;3.28;64.55;99992.94;7395133;19;20005;-54
2023/03/09 11:14:05;;;;;;;12.60;6.35;;;;;;;3.20;64.93;99985.56;7393395;19;20002;-53
2023/03/09 11:16:36;;;;;;;11.60;5.80;;;;;;;3.26;65.19;99989.56;7392628;19;19991;-59
2023/03/09 11:19:14;;;;;;;11.30;5.38;;;;;;;3.20;63.98;99998.69;7391694;19;20031;-48
2023/03/09 11:21:49;;;;;;;10.52;5.07;;;;;;;3.01;65.20;100001.63;7393596;19;20462;-48
2023/03/09 11:24:16;;;;;;;10.00;5.03;;;;;;;3.04;64.63;100003.22;7393302;19;20463;-50
2023/03/09 11:27:20;;;;;;;14.70;8.13;;;;;;;3.06;64.89;100007.41;7392863;19;19998;-48
2023/03/09 11:29:52;;;;;;;10.00;5.00;;;;;;;3.29;64.64;100005.13;7391786;19;20002;-50
2023/03/09 11:32:18;;;;;;;10.77;5.32;;;;;;;3.31;63.94;100008.50;7393675;19;20457;-48
2023/03/09 11:34:44;;;;;;;11.38;5.75;;;;;;;3.29;63.58;100008.59;7390467;19;19994;-49